Time;durP1;ratioP1;P1;durP2;ratioP2;P2;SDS_P1;SDS_P2;PMS_P1;PMS_P2;Temp;Humidity;BMP_temperature;BMP_pressure;BME280_temperature;BME280_humidity;BME280_pressure;Samples;Min_cycle;Max_cycle;Signal;HPM_P1;HPM_P2
2023/01/09 00:00:21;;;;;;;5.10;2.43;;;8.80;99.90;;;;;;4991688;28;20834;-77
2023/01/09 00:02:48;;;;;;;3.20;2.23;;;8.70;99.90;;;;;;4991605;28;21006;-76
2023/01/09 00:05:17;;;;;;;2.47;1.60;;;8.70;99.90;;;;;;4991828;28;20456;-76
2023/01/09 00:07:43;;;;;;;3.20;1.93;;;8.70;99.90;;;;;;4991593;28;20878;-77
2023/01/09 00:10:12;;;;;;;2.43;1.73;;;8.60;99.90;;;;;;4991794;28;20462;-75
2023/01/09 00:12:40;;;;;;;3.27;1.70;;;8.60;99.90;;;;;;4991672;28;20482;-75
2023/01/09 00:15:08;;;;;;;1.80;1.33;;;8.60;99.90;;;;;;4990513;28;20828;-76
2023/01/09 00:17:34;;;;;;;2.70;1.30;;;8.60;99.90;;;;;;4971752;28;20460;-76
2023/01/09 00:20:01;;;;;;;1.80;1.13;;;8.60;99.90;;;;;;4971858;28;20971;-75
2023/01/09 00:22:28;;;;;;;3.10;1.33;;;8.60;99.90;;;;;;4972066;28;20993;-76
2023/01/09 00:24:55;;;;;;;2.53;1.30;;;8.50;99.90;;;;;;4972120;28;20451;-76
2023/01/09 00:27:22;;;;;;;2.23;0.97;;;8.50;99.90;;;;;;4972811;28;20454;-76
2023/01/09 00:29:50;;;;;;;1.93;1.00;;;8.50;99.90;;;;;;4971992;28;20476;-76
2023/01/09 00:32:19;;;;;;;3.20;1.53;;;8.50;99.90;;;;;;4975924;28;20467;-76
2023/01/09 00:34:45;;;;;;;2.53;1.00;;;8.40;99.90;;;;;;4976295;28;20482;-76
2023/01/09 00:37:12;;;;;;;1.73;1.07;;;8.40;99.90;;;;;;4979232;28;20460;-77
2023/01/09 00:39:39;;;;;;;2.43;1.10;;;8.40;99.90;;;;;;4981765;28;20452;-77
2023/01/09 00:42:07;;;;;;;1.70;1.00;;;8.30;99.90;;;;;;4984834;28;20979;-78
2023/01/09 00:44:38;;;;;;;1.80;1.10;;;8.30;99.90;;;;;;4988095;28;20584;-76
2023/01/09 00:47:11;;;;;;;1.60;1.10;;;8.20;99.90;;;;;;4989613;28;20526;-77
2023/01/09 00:49:39;;;;;;;1.47;0.83;;;8.20;99.90;;;;;;4986982;28;20589;-77
2023/01/09 00:52:07;;;;;;;2.23;0.80;;;8.10;99.90;;;;;;4989765;28;20460;-78
2023/01/09 00:54:34;;;;;;;1.80;0.93;;;8.10;99.90;;;;;;4988929;28;20447;-78
2023/01/09 00:57:01;;;;;;;1.50;1.03;;;8.10;99.90;;;;;;4989584;28;20531;-80
2023/01/09 00:59:28;;;;;;;1.50;1.00;;;8.10;99.90;;;;;;4990098;28;20447;-79
2023/01/09 01:01:55;;;;;;;2.00;0.90;;;8.10;99.90;;;;;;4990813;28;20850;-78
2023/01/09 01:09:58;;;;;;;3.10;0.90;;;8.10;99.90;;;;;;4990760;28;20555;-79
2023/01/09 01:12:24;;;;;;;2.80;0.90;;;8.10;99.90;;;;;;5021530;23;20516;-79
2023/01/09 01:14:53;;;;;;;1.50;0.80;;;8.10;99.90;;;;;;5013641;28;20447;-80
2023/01/09 01:17:20;;;;;;;2.67;0.87;;;8.10;99.90;;;;;;5019932;28;20449;-80
2023/01/09 01:19:48;;;;;;;1.80;1.40;;;8.10;99.90;;;;;;5015873;28;20464;-80
2023/01/09 01:22:15;;;;;;;2.67;0.80;;;8.10;99.90;;;;;;5009506;28;20489;-80
2023/01/09 01:24:42;;;;;;;1.60;0.73;;;8.10;99.90;;;;;;5012438;28;20449;-80
2023/01/09 01:27:09;;;;;;;1.83;0.80;;;8.00;99.90;;;;;;5017059;28;20461;-81
2023/01/09 01:29:35;;;;;;;1.63;0.70;;;8.00;99.90;;;;;;5018328;28;21023;-80
2023/01/09 01:32:02;;;;;;;1.40;0.80;;;7.90;99.90;;;;;;5017777;28;20473;-81
2023/01/09 01:34:29;;;;;;;1.63;0.73;;;7.90;99.90;;;;;;5013025;28;20458;-81
2023/01/09 01:36:58;;;;;;;1.40;0.80;;;7.80;99.90;;;;;;5002640;28;20464;-80
2023/01/09 01:39:24;;;;;;;1.60;0.70;;;7.80;99.90;;;;;;5015123;28;20666;-81
2023/01/09 01:41:51;;;;;;;2.43;0.90;;;7.90;99.90;;;;;;5008625;28;20579;-82
2023/01/09 01:44:55;;;;;;;2.17;0.90;;;7.90;99.90;;;;;;5017639;28;20955;-82
2023/01/09 01:47:29;;;;;;;1.40;0.70;;;7.80;99.90;;;;;;5017157;28;20458;-82
2023/01/09 01:49:56;;;;;;;2.23;0.90;;;7.80;99.90;;;;;;5017076;28;21233;-82
2023/01/09 01:52:25;;;;;;;1.40;0.70;;;7.80;99.90;;;;;;5016628;28;20468;-81
2023/01/09 01:54:53;;;;;;;1.40;0.70;;;7.70;99.90;;;;;;5016209;28;20453;-81
2023/01/09 01:57:20;;;;;;;1.50;0.80;;;7.70;99.90;;;;;;5016448;28;20833;-81
2023/01/09 01:59:50;;;;;;;2.47;1.10;;;7.70;99.90;;;;;;5018365;28;20461;-80
2023/01/09 02:02:20;;;;;;;1.70;0.90;;;7.70;99.90;;;;;;5017940;28;20489;-81
2023/01/09 02:04:48;;;;;;;2.00;0.90;;;7.70;99.90;;;;;;5015896;28;20458;-81
2023/01/09 02:07:15;;;;;;;1.53;0.83;;;7.70;99.90;;;;;;5019235;28;20456;-82
2023/01/09 02:09:45;;;;;;;2.87;0.90;;;7.70;99.90;;;;;;5020582;28;20458;-82
2023/01/09 02:12:17;;;;;;;3.10;1.23;;;7.80;99.90;;;;;;5016385;28;20542;-82
2023/01/09 02:14:47;;;;;;;1.70;0.87;;;7.80;99.90;;;;;;5016324;28;20471;-80
2023/01/09 02:17:24;;;;;;;1.50;0.80;;;7.70;99.90;;;;;;5016083;28;20670;-81
2023/01/09 02:20:31;;;;;;;4.33;0.90;;;7.70;99.90;;;;;;5015447;28;20532;-80
2023/01/09 02:23:28;;;;;;;1.60;0.97;;;7.70;99.90;;;;;;5015640;28;20499;-80
2023/01/09 02:26:23;;;;;;;1.93;0.70;;;7.60;99.90;;;;;;5005733;28;20844;-80
2023/01/09 02:29:12;;;;;;;1.97;0.80;;;7.70;99.90;;;;;;5011195;28;20461;-80
2023/01/09 02:31:48;;;;;;;1.60;0.77;;;7.70;99.90;;;;;;5015214;28;20984;-80
2023/01/09 02:34:24;;;;;;;1.33;0.67;;;7.70;99.90;;;;;;5016896;28;20447;-82
2023/01/09 02:37:00;;;;;;;2.23;0.80;;;7.70;99.90;;;;;;5016228;28;20446;-81
2023/01/09 02:39:33;;;;;;;1.93;0.70;;;7.70;99.90;;;;;;5015183;28;20544;-80
2023/01/09 02:42:05;;;;;;;1.40;0.70;;;7.70;99.90;;;;;;5009244;28;20473;-80
2023/01/09 02:44:35;;;;;;;2.23;0.80;;;7.70;99.90;;;;;;5015681;28;20446;-80
2023/01/09 02:47:06;;;;;;;1.80;0.70;;;7.60;99.90;;;;;;5016329;28;20461;-81
2023/01/09 02:49:34;;;;;;;1.67;0.70;;;7.60;99.90;;;;;;5015408;28;20541;-80
2023/01/09 02:52:18;;;;;;;1.50;0.70;;;7.50;99.90;;;;;;5015896;28;20479;-80
2023/01/09 02:54:55;;;;;;;1.50;0.90;;;7.50;99.90;;;;;;5015660;28;20440;-80
2023/01/09 02:57:34;;;;;;;1.97;0.80;;;7.50;99.90;;;;;;5016424;28;20810;-83
2023/01/09 03:00:10;;;;;;;1.57;0.70;;;7.50;99.90;;;;;;5015781;28;20456;-83
2023/01/09 03:02:46;;;;;;;1.50;0.70;;;7.40;99.90;;;;;;5015947;28;20878;-84
2023/01/09 03:05:20;;;;;;;1.80;0.73;;;7.30;99.90;;;;;;5016160;28;20457;-81
2023/01/09 03:07:55;;;;;;;1.90;1.00;;;7.30;99.90;;;;;;5017057;28;20451;-85
2023/01/09 03:10:26;;;;;;;1.80;0.70;;;7.30;99.90;;;;;;5015766;28;20445;-82
2023/01/09 03:12:54;;;;;;;1.90;0.90;;;7.30;99.90;;;;;;5015282;28;20482;-83
2023/01/09 03:15:25;;;;;;;2.10;1.03;;;7.30;99.90;;;;;;5015700;28;20457;-81
2023/01/09 03:17:55;;;;;;;1.90;1.03;;;7.40;99.90;;;;;;5016164;28;20458;-82
2023/01/09 03:20:26;;;;;;;2.00;0.90;;;7.40;99.90;;;;;;5016099;28;20453;-80
2023/01/09 03:22:55;;;;;;;2.57;0.93;;;7.40;99.90;;;;;;5018854;28;20513;-82
2023/01/09 03:25:22;;;;;;;3.10;0.90;;;7.60;99.90;;;;;;5020851;28;20460;-82
2023/01/09 03:27:52;;;;;;;1.97;1.00;;;7.60;99.90;;;;;;5018848;28;20943;-82
2023/01/09 03:30:19;;;;;;;1.50;0.90;;;7.60;99.90;;;;;;5017997;28;20450;-82
2023/01/09 03:32:46;;;;;;;2.93;1.00;;;7.70;99.90;;;;;;5017460;28;20466;-82
2023/01/09 03:35:14;;;;;;;2.20;1.30;;;7.80;99.90;;;;;;5018123;28;20458;-82
2023/01/09 03:37:41;;;;;;;1.80;0.90;;;7.90;99.90;;;;;;5019243;28;20450;-84
2023/01/09 03:40:09;;;;;;;2.17;1.10;;;8.00;99.90;;;;;;5024492;28;20964;-82
2023/01/09 03:42:36;;;;;;;5.50;1.20;;;7.90;99.90;;;;;;5030421;28;20496;-82
2023/01/09 03:45:03;;;;;;;1.93;1.00;;;8.00;99.90;;;;;;5031354;28;20513;-82
2023/01/09 03:47:30;;;;;;;2.43;1.10;;;7.90;99.90;;;;;;5031757;28;20521;-83
2023/01/09 03:49:57;;;;;;;2.10;1.10;;;7.90;99.90;;;;;;5030775;28;20480;-81
2023/01/09 03:52:25;;;;;;;3.00;1.50;;;7.90;99.90;;;;;;5031082;28;20537;-85
2023/01/09 03:54:52;;;;;;;2.83;1.20;;;8.00;99.90;;;;;;5031391;28;20463;-84
2023/01/09 03:57:18;;;;;;;3.20;1.40;;;8.00;99.90;;;;;;5030940;28;20478;-84
2023/01/09 03:59:45;;;;;;;3.60;1.50;;;8.00;99.90;;;;;;5031408;28;20473;-81
2023/01/09 04:02:12;;;;;;;3.40;1.37;;;8.10;99.90;;;;;;5031513;28;20564;-82
2023/01/09 04:04:39;;;;;;;2.20;1.17;;;8.10;99.90;;;;;;5030526;28;20524;-81
2023/01/09 04:07:06;;;;;;;1.80;1.40;;;8.10;99.90;;;;;;5036059;28;20459;-86
2023/01/09 04:09:34;;;;;;;3.90;1.33;;;8.10;99.90;;;;;;5036082;28;20952;-83
2023/01/09 04:12:01;;;;;;;3.30;1.37;;;8.00;99.90;;;;;;5027601;28;20478;-81
2023/01/09 04:14:27;;;;;;;3.77;1.40;;;7.90;99.90;;;;;;5021178;28;20521;-83
2023/01/09 04:16:54;;;;;;;2.60;1.40;;;7.90;99.90;;;;;;5021425;28;20549;-82
2023/01/09 04:19:21;;;;;;;7.17;1.67;;;7.80;99.90;;;;;;5026134;28;20485;-82
2023/01/09 04:21:48;;;;;;;2.57;1.50;;;7.80;99.90;;;;;;5029900;28;20468;-80
2023/01/09 04:24:15;;;;;;;8.27;2.17;;;7.80;99.90;;;;;;5030193;28;20573;-83
2023/01/09 04:26:43;;;;;;;6.80;1.83;;;7.70;99.90;;;;;;5021144;28;20832;-82
2023/01/09 04:29:10;;;;;;;2.90;1.37;;;7.80;99.90;;;;;;5020736;28;20549;-82
2023/01/09 04:31:37;;;;;;;10.73;2.47;;;7.80;99.90;;;;;;5020854;28;20582;-80
2023/01/09 04:34:04;;;;;;;3.70;1.87;;;7.70;99.90;;;;;;5020794;28;20478;-80
2023/01/09 04:36:33;;;;;;;3.70;1.50;;;7.60;99.90;;;;;;5020876;28;20453;-80
2023/01/09 04:39:00;;;;;;;4.90;1.40;;;7.50;99.90;;;;;;5018487;28;20456;-80
2023/01/09 04:44:12;;;;;;;3.00;1.57;;;7.30;99.90;;;;;;5026646;28;20536;-79
2023/01/09 04:46:39;;;;;;;4.93;1.60;;;7.20;99.90;;;;;;5025982;28;20453;-80
2023/01/09 04:49:06;;;;;;;3.37;1.53;;;7.10;99.90;;;;;;5026127;28;20555;-80
2023/01/09 04:51:32;;;;;;;3.60;1.50;;;7.00;99.90;;;;;;5019996;28;20477;-79
2023/01/09 04:53:59;;;;;;;4.83;1.47;;;7.00;99.90;;;;;;5020242;28;20461;-79
2023/01/09 04:56:26;;;;;;;4.83;1.40;;;6.90;99.90;;;;;;5014452;28;20441;-79
2023/01/09 04:58:53;;;;;;;4.33;1.83;;;6.90;99.90;;;;;;5022228;28;20556;-80
2023/01/09 05:01:21;;;;;;;3.50;1.70;;;6.90;99.90;;;;;;5022544;28;20817;-80
2023/01/09 05:03:48;;;;;;;4.73;1.37;;;6.80;99.90;;;;;;5024105;28;20492;-80
2023/01/09 05:06:15;;;;;;;2.00;1.10;;;6.70;99.90;;;;;;5024159;28;20544;-79
2023/01/09 05:08:41;;;;;;;2.50;1.10;;;6.70;99.90;;;;;;5031788;28;20521;-81
2023/01/09 05:11:08;;;;;;;5.60;1.70;;;6.60;99.90;;;;;;5029583;28;20463;-82
2023/01/09 05:13:35;;;;;;;4.80;1.47;;;6.60;99.90;;;;;;5029544;28;20533;-81
2023/01/09 05:16:02;;;;;;;4.90;1.30;;;6.60;99.90;;;;;;5024505;28;20478;-81
2023/01/09 05:18:30;;;;;;;4.70;1.30;;;6.60;99.90;;;;;;5033032;28;20547;-81
2023/01/09 05:20:57;;;;;;;5.17;1.53;;;6.50;99.90;;;;;;5034351;28;20532;-80
2023/01/09 05:23:24;;;;;;;2.60;1.40;;;6.60;99.90;;;;;;5023148;28;20564;-80
2023/01/09 05:25:51;;;;;;;5.30;1.23;;;6.60;99.90;;;;;;5025977;28;20483;-80
2023/01/09 05:28:17;;;;;;;6.53;1.70;;;6.70;99.90;;;;;;5021102;28;20928;-80
2023/01/09 05:30:44;;;;;;;3.97;1.30;;;6.70;99.90;;;;;;5028729;28;20512;-80
2023/01/09 05:33:11;;;;;;;3.43;1.53;;;6.80;99.90;;;;;;5022613;28;21073;-81
2023/01/09 05:35:39;;;;;;;2.17;1.20;;;6.90;99.90;;;;;;5019030;28;20533;-81
2023/01/09 05:38:06;;;;;;;5.77;1.53;;;7.00;99.90;;;;;;5021177;28;20535;-82
2023/01/09 05:40:33;;;;;;;2.63;1.20;;;7.10;99.90;;;;;;5016063;28;20457;-82
2023/01/09 05:42:59;;;;;;;4.37;1.17;;;7.20;99.90;;;;;;5018725;28;20529;-82
2023/01/09 05:45:26;;;;;;;4.07;1.40;;;7.30;99.90;;;;;;5020653;28;20526;-82
2023/01/09 05:47:53;;;;;;;4.27;1.20;;;7.40;99.90;;;;;;5020218;28;20452;-82
2023/01/09 05:50:20;;;;;;;7.33;1.30;;;7.30;99.90;;;;;;5007900;28;21027;-82
2023/01/09 05:52:48;;;;;;;3.13;1.30;;;7.40;99.90;;;;;;5014163;28;20540;-83
2023/01/09 05:55:15;;;;;;;1.90;0.93;;;7.40;99.90;;;;;;5013066;28;20458;-82
2023/01/09 05:57:42;;;;;;;3.50;1.60;;;7.50;99.90;;;;;;5021654;28;20509;-82
2023/01/09 06:00:10;;;;;;;5.33;1.67;;;7.50;99.90;;;;;;5015249;28;20536;-82
2023/01/09 06:02:37;;;;;;;3.00;1.00;;;7.60;99.90;;;;;;5010520;28;20541;-82
2023/01/09 06:05:04;;;;;;;5.13;1.40;;;7.70;99.90;;;;;;5009415;28;20486;-82
2023/01/09 06:07:33;;;;;;;3.70;1.60;;;7.60;99.90;;;;;;5017087;28;20461;-81
2023/01/09 06:10:01;;;;;;;2.97;1.20;;;7.60;99.90;;;;;;5004758;28;20458;-81
2023/01/09 06:12:30;;;;;;;6.40;1.60;;;7.60;99.90;;;;;;5008674;28;20539;-83
2023/01/09 06:14:57;;;;;;;3.03;1.00;;;7.60;99.90;;;;;;5001435;28;20451;-81
2023/01/09 06:17:24;;;;;;;2.63;1.43;;;7.50;99.90;;;;;;5007242;28;20489;-79
2023/01/09 06:19:51;;;;;;;2.47;1.03;;;7.50;99.90;;;;;;5011595;28;20555;-80
2023/01/09 06:22:18;;;;;;;2.07;1.03;;;7.50;99.90;;;;;;5003197;28;20484;-81
2023/01/09 06:24:44;;;;;;;6.20;1.20;;;7.50;99.90;;;;;;5015831;28;20494;-80
2023/01/09 06:27:12;;;;;;;2.57;1.17;;;7.60;99.90;;;;;;5015473;28;20454;-80
2023/01/09 06:29:39;;;;;;;7.33;1.50;;;7.50;99.90;;;;;;5015264;28;20453;-80
2023/01/09 06:32:07;;;;;;;2.70;1.00;;;7.60;99.90;;;;;;5015249;28;20858;-81
2023/01/09 06:34:33;;;;;;;4.20;1.10;;;7.70;99.90;;;;;;5011699;28;20545;-80
2023/01/09 06:37:00;;;;;;;4.80;1.07;;;7.70;99.90;;;;;;5013555;28;20459;-79
2023/01/09 06:39:27;;;;;;;2.17;1.00;;;7.70;99.90;;;;;;5006064;28;20468;-81
2023/01/09 06:41:54;;;;;;;1.90;0.97;;;7.70;99.90;;;;;;5012315;28;20496;-82
2023/01/09 06:44:22;;;;;;;2.37;1.23;;;7.70;99.90;;;;;;5015695;28;20573;-80
2023/01/09 06:46:49;;;;;;;4.20;1.83;;;7.60;99.90;;;;;;5000629;28;20529;-80
2023/01/09 06:49:16;;;;;;;4.13;1.50;;;7.50;99.90;;;;;;5014558;28;20698;-80
2023/01/09 06:51:43;;;;;;;2.43;1.10;;;7.40;99.90;;;;;;5020698;28;20535;-79
2023/01/09 06:54:10;;;;;;;3.27;1.60;;;7.30;99.90;;;;;;5021072;28;20433;-79
2023/01/09 06:56:37;;;;;;;2.80;1.43;;;7.20;99.90;;;;;;5021232;28;20472;-81
2023/01/09 06:59:03;;;;;;;4.50;1.30;;;7.10;99.90;;;;;;5020221;28;20442;-81
2023/01/09 07:01:32;;;;;;;5.50;1.60;;;7.10;99.90;;;;;;5020023;28;21079;-82
2023/01/09 07:03:58;;;;;;;3.37;1.00;;;7.00;99.90;;;;;;5020911;28;20580;-79
2023/01/09 07:06:26;;;;;;;4.70;1.30;;;7.00;99.90;;;;;;5016664;28;20475;-80
2023/01/09 07:08:52;;;;;;;4.17;1.97;;;7.00;99.90;;;;;;5018829;28;20511;-80
2023/01/09 07:11:19;;;;;;;6.33;1.63;;;7.00;99.90;;;;;;5017891;28;20461;-80
2023/01/09 07:13:46;;;;;;;3.50;1.27;;;7.00;99.90;;;;;;5055322;22;20511;-78
2023/01/09 07:16:13;;;;;;;4.73;1.13;;;6.90;99.90;;;;;;5037139;28;20527;-79
2023/01/09 07:18:41;;;;;;;3.20;1.20;;;7.00;99.90;;;;;;5045276;28;20885;-78
2023/01/09 07:21:08;;;;;;;3.30;2.00;;;7.00;99.90;;;;;;5043432;28;20509;-78
2023/01/09 07:23:35;;;;;;;4.13;1.23;;;7.10;99.90;;;;;;5042463;28;20480;-78
2023/01/09 07:26:01;;;;;;;3.00;1.20;;;7.10;99.90;;;;;;5040743;28;20529;-77
2023/01/09 07:28:28;;;;;;;5.37;1.40;;;7.20;99.90;;;;;;5042649;28;20535;-77
2023/01/09 07:30:55;;;;;;;10.23;1.57;;;7.20;99.90;;;;;;5041184;28;20463;-77
2023/01/09 07:33:22;;;;;;;6.03;1.20;;;7.30;99.90;;;;;;5042435;28;20460;-79
2023/01/09 07:35:51;;;;;;;3.20;1.13;;;7.30;99.90;;;;;;5040921;28;20548;-77
2023/01/09 07:38:17;;;;;;;9.10;2.30;;;7.30;99.90;;;;;;5037712;28;20531;-79
2023/01/09 07:40:44;;;;;;;2.97;1.13;;;7.40;99.90;;;;;;5043386;28;20454;-78
2023/01/09 07:43:11;;;;;;;4.60;1.70;;;7.40;99.90;;;;;;5041680;28;20482;-77
2023/01/09 07:45:38;;;;;;;5.27;1.37;;;7.40;99.90;;;;;;5044430;28;20503;-81
2023/01/09 07:48:05;;;;;;;3.00;1.47;;;7.50;99.90;;;;;;5045451;28;20520;-79
2023/01/09 07:50:32;;;;;;;4.30;1.30;;;7.50;99.90;;;;;;5041452;28;20486;-79
2023/01/09 07:53:00;;;;;;;4.43;1.20;;;7.60;99.90;;;;;;5049486;28;20530;-78
2023/01/09 07:55:27;;;;;;;4.70;1.60;;;7.60;99.90;;;;;;5044850;28;20456;-79
2023/01/09 07:57:54;;;;;;;7.00;1.80;;;7.70;99.90;;;;;;5044723;28;20513;-78
2023/01/09 08:00:21;;;;;;;3.50;1.37;;;7.60;99.90;;;;;;5049544;28;21030;-79
2023/01/09 08:02:52;;;;;;;2.53;0.90;;;7.70;99.90;;;;;;5050350;28;20475;-79
2023/01/09 08:05:19;;;;;;;2.53;1.17;;;7.70;99.90;;;;;;5049357;28;20494;-80
2023/01/09 08:07:46;;;;;;;5.93;2.13;;;7.60;99.90;;;;;;5051220;28;20444;-80
2023/01/09 08:10:18;;;;;;;3.90;1.10;;;7.60;99.90;;;;;;5045762;28;20491;-80
2023/01/09 08:12:45;;;;;;;3.80;1.20;;;7.60;99.90;;;;;;5050377;28;20488;-80
2023/01/09 08:15:12;;;;;;;3.83;1.17;;;7.60;99.90;;;;;;5051107;28;20460;-80
2023/01/09 08:17:42;;;;;;;3.00;1.13;;;7.60;99.90;;;;;;5051744;28;20475;-80
2023/01/09 08:20:11;;;;;;;5.93;1.53;;;7.50;99.90;;;;;;5048413;28;20444;-80
2023/01/09 08:22:38;;;;;;;6.17;1.33;;;7.60;99.90;;;;;;5048245;28;20496;-80
2023/01/09 08:25:08;;;;;;;5.40;2.00;;;7.60;99.90;;;;;;5051298;28;20523;-79
2023/01/09 08:27:36;;;;;;;3.17;1.30;;;7.60;99.90;;;;;;5049998;28;20448;-81
2023/01/09 08:30:03;;;;;;;6.57;2.00;;;7.60;99.90;;;;;;5051204;28;20472;-80
2023/01/09 08:32:30;;;;;;;5.20;1.37;;;7.50;99.90;;;;;;5050202;28;20549;-80
2023/01/09 08:34:57;;;;;;;5.70;1.20;;;7.60;99.90;;;;;;5048718;28;20468;-81
2023/01/09 08:37:24;;;;;;;6.00;1.57;;;7.60;99.90;;;;;;5040271;28;20492;-80
2023/01/09 08:39:52;;;;;;;2.57;1.37;;;7.60;99.90;;;;;;5036264;28;20484;-80
2023/01/09 08:47:50;;;;;;;5.03;1.67;;;7.50;99.90;;;;;;5046529;28;20419;-80
2023/01/09 08:50:17;;;;;;;7.87;1.27;;;7.60;99.90;;;;;;5033325;28;20997;-81
2023/01/09 08:52:43;;;;;;;5.03;1.50;;;7.60;99.90;;;;;;5044055;28;20544;-81
2023/01/09 08:55:10;;;;;;;3.30;1.73;;;7.60;99.90;;;;;;5036521;28;20508;-81
2023/01/09 08:57:37;;;;;;;3.60;1.40;;;7.60;99.90;;;;;;5033311;28;20851;-81
2023/01/09 09:00:06;;;;;;;3.00;1.20;;;7.70;99.90;;;;;;5021655;28;20484;-80
2023/01/09 09:02:33;;;;;;;2.90;1.90;;;7.60;99.90;;;;;;5031405;28;20564;-81
2023/01/09 09:05:00;;;;;;;4.50;1.43;;;7.60;99.90;;;;;;5036845;28;20495;-81
2023/01/09 09:07:27;;;;;;;3.10;1.23;;;7.60;99.90;;;;;;5033032;28;20453;-82
2023/01/09 09:09:53;;;;;;;5.77;1.27;;;7.60;99.90;;;;;;5023810;28;20557;-82
2023/01/09 09:12:21;;;;;;;4.00;1.40;;;7.50;99.90;;;;;;5018139;28;20485;-81
2023/01/09 09:17:34;;;;;;;3.90;1.50;;;7.60;99.90;;;;;;5037028;28;20996;-81
2023/01/09 09:20:01;;;;;;;3.60;1.33;;;7.60;99.90;;;;;;5037812;28;20560;-81
2023/01/09 09:22:28;;;;;;;4.03;1.37;;;7.50;99.90;;;;;;5029041;28;21229;-83
2023/01/09 09:24:54;;;;;;;3.20;1.13;;;7.50;99.90;;;;;;5029051;28;20473;-82
2023/01/09 09:27:21;;;;;;;7.10;1.43;;;7.50;99.90;;;;;;5024343;28;20513;-82
2023/01/09 09:29:48;;;;;;;4.63;1.40;;;7.50;99.90;;;;;;5019339;28;20453;-84
2023/01/09 09:32:15;;;;;;;3.10;1.13;;;7.50;99.90;;;;;;5032093;28;20822;-84
2023/01/09 09:34:43;;;;;;;3.40;1.73;;;7.50;99.90;;;;;;5039474;28;20834;-84
2023/01/09 09:37:10;;;;;;;7.00;2.10;;;7.40;99.90;;;;;;5021738;28;20550;-80
2023/01/09 09:39:37;;;;;;;4.43;1.70;;;7.50;99.90;;;;;;5032008;28;20458;-79
2023/01/09 09:45:34;;;;;;;3.80;2.30;;;7.50;99.90;;;;;;4987444;28;20605;-80
2023/01/09 09:48:13;;;;;;;5.47;2.03;;;7.60;99.90;;;;;;5026166;28;20511;-80
2023/01/09 09:51:24;;;;;;;7.80;2.13;;;7.60;99.90;;;;;;5020443;28;20443;-80
2023/01/09 09:53:58;;;;;;;6.30;1.43;;;7.60;99.90;;;;;;5032768;28;20472;-79
2023/01/09 09:56:52;;;;;;;6.10;2.90;;;7.60;99.90;;;;;;5024864;28;20501;-78
2023/01/09 09:59:23;;;;;;;3.10;1.90;;;7.70;99.90;;;;;;5026014;28;20461;-78
2023/01/09 10:01:56;;;;;;;4.97;2.23;;;7.70;99.90;;;;;;5025446;28;20522;-80
2023/01/09 10:04:25;;;;;;;3.10;1.40;;;7.80;99.90;;;;;;5023080;28;20493;-80
2023/01/09 10:07:08;;;;;;;6.00;2.00;;;7.80;99.90;;;;;;5027024;28;20544;-81
2023/01/09 10:09:47;;;;;;;6.93;1.47;;;7.80;99.90;;;;;;5030091;28;20925;-80
2023/01/09 10:12:31;;;;;;;5.93;1.60;;;7.80;99.90;;;;;;5033119;28;20464;-78
2023/01/09 10:15:00;;;;;;;3.13;1.40;;;7.80;99.90;;;;;;5028607;28;20456;-80
2023/01/09 10:17:55;;;;;;;7.80;1.73;;;7.80;99.90;;;;;;5034276;28;20442;-81
2023/01/09 10:20:51;;;;;;;5.53;1.20;;;7.80;99.90;;;;;;5025234;28;20537;-78
2023/01/09 10:23:52;;;;;;;3.40;1.20;;;7.90;99.90;;;;;;4994794;28;20484;-80
2023/01/09 10:26:25;;;;;;;5.13;1.60;;;7.90;99.90;;;;;;5028858;28;20488;-80
2023/01/09 10:29:16;;;;;;;4.63;1.60;;;8.00;99.90;;;;;;5023068;28;20572;-80
2023/01/09 10:31:56;;;;;;;6.17;2.43;;;7.90;99.90;;;;;;5029052;28;20452;-80
2023/01/09 10:34:35;;;;;;;2.47;0.90;;;7.90;99.90;;;;;;5039517;28;20452;-81
2023/01/09 10:39:59;;;;;;;8.50;1.50;;;8.00;99.90;;;;;;5010938;28;20485;-77
2023/01/09 10:42:33;;;;;;;4.37;1.43;;;8.10;99.90;;;;;;5033422;28;20504;-80
2023/01/09 10:45:04;;;;;;;2.87;1.10;;;8.50;99.90;;;;;;5033560;28;20854;-81
2023/01/09 10:47:34;;;;;;;8.33;1.40;;;8.80;99.90;;;;;;5033623;28;20825;-79
2023/01/09 10:50:02;;;;;;;4.33;1.07;;;9.00;99.90;;;;;;5020714;28;20452;-79
2023/01/09 10:52:35;;;;;;;4.03;1.20;;;9.40;99.90;;;;;;5019688;28;21020;-79
2023/01/09 10:55:18;;;;;;;3.77;1.50;;;9.50;99.90;;;;;;5018425;28;20471;-80
2023/01/09 10:57:46;;;;;;;5.80;1.63;;;9.50;99.90;;;;;;5017378;28;20484;-80
2023/01/09 11:00:19;;;;;;;5.50;1.33;;;9.20;99.90;;;;;;5014053;28;20470;-79
2023/01/09 11:02:47;;;;;;;3.03;1.43;;;9.20;99.90;;;;;;5015584;28;20470;-80
2023/01/09 11:05:18;;;;;;;3.77;1.40;;;9.20;99.90;;;;;;5014353;28;21032;-79
2023/01/09 11:07:48;;;;;;;2.77;1.47;;;9.20;99.90;;;;;;5028296;28;20976;-81
2023/01/09 11:10:17;;;;;;;3.27;1.60;;;9.00;99.90;;;;;;5020443;28;20969;-77
2023/01/09 11:12:43;;;;;;;3.80;1.40;;;9.00;99.90;;;;;;5024063;28;20521;-78
2023/01/09 11:15:29;;;;;;;3.60;1.27;;;9.00;99.90;;;;;;5012928;28;20549;-75
2023/01/09 11:18:18;;;;;;;3.10;1.87;;;9.00;99.90;;;;;;5009330;28;20461;-78
2023/01/09 11:20:45;;;;;;;3.97;1.77;;;9.10;99.90;;;;;;5000598;28;20455;-77
2023/01/09 11:23:28;;;;;;;8.43;1.10;;;9.00;99.90;;;;;;5010871;28;20481;-77
2023/01/09 11:25:57;;;;;;;6.07;1.33;;;9.10;99.90;;;;;;5009766;28;20485;-77
2023/01/09 11:28:25;;;;;;;7.53;1.37;;;9.20;99.90;;;;;;5009077;28;20994;-77
2023/01/09 11:30:54;;;;;;;6.13;1.33;;;9.40;99.90;;;;;;5009468;28;20462;-77
2023/01/09 11:33:23;;;;;;;5.23;1.10;;;9.40;99.90;;;;;;5016671;28;20472;-77
2023/01/09 11:35:57;;;;;;;4.60;1.00;;;9.40;99.90;;;;;;5018890;28;20450;-77
2023/01/09 11:38:24;;;;;;;3.17;1.10;;;9.30;99.90;;;;;;5010859;28;20447;-77
2023/01/09 11:40:53;;;;;;;4.23;1.07;;;9.20;99.90;;;;;;5011473;28;20479;-78
2023/01/09 11:43:36;;;;;;;5.97;2.07;;;9.10;99.90;;;;;;5011849;28;20922;-78
2023/01/09 11:46:06;;;;;;;3.80;1.10;;;9.10;99.90;;;;;;5009964;28;20535;-77
2023/01/09 11:48:41;;;;;;;3.60;1.00;;;9.20;99.90;;;;;;5011361;28;20460;-76
2023/01/09 11:51:21;;;;;;;2.93;1.07;;;9.30;99.90;;;;;;5019262;28;20533;-76
2023/01/09 11:54:04;;;;;;;5.60;1.20;;;9.40;99.90;;;;;;5010577;28;20550;-77
2023/01/09 11:56:32;;;;;;;3.67;1.37;;;9.50;99.90;;;;;;5009448;28;20461;-76
2023/01/09 11:59:00;;;;;;;2.80;1.30;;;9.40;99.90;;;;;;5009933;28;20452;-77
2023/01/09 12:02:11;;;;;;;4.07;1.40;;;9.20;99.90;;;;;;5009281;28;20469;-76
2023/01/09 12:04:43;;;;;;;4.80;1.30;;;9.00;99.90;;;;;;5009972;28;20458;-76
2023/01/09 12:07:56;;;;;;;5.77;1.50;;;8.90;99.90;;;;;;5010351;28;21099;-76
2023/01/09 12:10:45;;;;;;;6.03;1.37;;;8.80;99.90;;;;;;5010729;28;20997;-77
2023/01/09 12:13:29;;;;;;;4.07;1.17;;;8.70;99.90;;;;;;5009117;28;20477;-76
2023/01/09 12:16:08;;;;;;;5.93;1.53;;;8.70;99.90;;;;;;5010208;28;20443;-76
2023/01/09 12:18:48;;;;;;;9.10;1.73;;;8.60;99.90;;;;;;5009591;28;20465;-75
2023/01/09 12:21:32;;;;;;;3.50;1.37;;;8.60;99.90;;;;;;5008270;28;20492;-76
2023/01/09 12:24:17;;;;;;;3.10;1.70;;;8.60;99.90;;;;;;5016268;28;20548;-76
2023/01/09 12:26:54;;;;;;;3.50;1.13;;;8.50;99.90;;;;;;5012402;28;20859;-75
2023/01/09 12:29:40;;;;;;;3.50;1.10;;;8.50;99.90;;;;;;5016742;28;20449;-77
2023/01/09 12:32:29;;;;;;;5.93;1.80;;;8.40;99.90;;;;;;5020755;28;20463;-77
2023/01/09 12:35:03;;;;;;;8.40;1.83;;;8.50;99.90;;;;;;5028260;28;20458;-76
2023/01/09 12:37:57;;;;;;;4.20;1.93;;;8.40;99.90;;;;;;5018420;28;20461;-80
2023/01/09 12:40:44;;;;;;;3.07;1.57;;;8.40;99.90;;;;;;5018086;28;20453;-78
2023/01/09 12:43:19;;;;;;;6.10;1.90;;;8.40;99.90;;;;;;5019012;28;20482;-78
2023/01/09 12:45:59;;;;;;;7.00;2.30;;;8.20;99.90;;;;;;5032736;28;20960;-79
2023/01/09 12:48:49;;;;;;;4.83;2.13;;;8.30;99.90;;;;;;5026551;28;20456;-78
2023/01/09 12:51:28;;;;;;;4.50;2.50;;;8.40;99.90;;;;;;5021561;28;20448;-78
2023/01/09 12:54:01;;;;;;;6.03;2.17;;;8.40;99.90;;;;;;5014954;28;20846;-79
2023/01/09 12:56:33;;;;;;;3.37;2.63;;;8.40;99.90;;;;;;5017938;28;20459;-79
2023/01/09 12:59:06;;;;;;;3.60;2.30;;;8.30;99.90;;;;;;5023590;28;20533;-78
2023/01/09 13:01:39;;;;;;;3.47;2.33;;;8.20;99.90;;;;;;5030410;28;20469;-79
2023/01/09 13:04:15;;;;;;;4.03;2.80;;;8.20;99.90;;;;;;5025882;28;20871;-79
2023/01/09 13:06:48;;;;;;;3.40;1.90;;;8.20;99.90;;;;;;5028917;28;20552;-79
2023/01/09 13:09:22;;;;;;;4.60;2.43;;;8.40;99.90;;;;;;5027377;28;20458;-79
2023/01/09 13:11:56;;;;;;;5.00;2.30;;;8.40;99.90;;;;;;5029020;28;20560;-79
2023/01/09 13:14:30;;;;;;;4.53;2.30;;;8.40;99.90;;;;;;5058923;23;20507;-80
2023/01/09 13:16:58;;;;;;;3.80;2.13;;;8.60;99.90;;;;;;5034751;28;20454;-78
2023/01/09 13:19:31;;;;;;;3.13;2.10;;;8.70;99.90;;;;;;5025589;28;20981;-77
2023/01/09 13:21:59;;;;;;;7.57;2.67;;;8.60;99.90;;;;;;5030176;28;20965;-78
2023/01/09 13:24:35;;;;;;;6.00;2.10;;;8.60;99.90;;;;;;5029096;28;20468;-79
2023/01/09 13:27:06;;;;;;;2.17;1.80;;;8.40;99.90;;;;;;5034664;28;20477;-81
2023/01/09 13:29:37;;;;;;;6.13;2.20;;;8.40;99.90;;;;;;5033874;28;20536;-78
2023/01/09 13:32:24;;;;;;;3.93;1.97;;;8.30;99.90;;;;;;5030267;28;20530;-79
2023/01/09 13:34:56;;;;;;;3.40;1.57;;;8.30;99.90;;;;;;5031125;28;20472;-79
2023/01/09 13:37:26;;;;;;;4.53;1.73;;;8.30;99.90;;;;;;5033596;28;20452;-80
2023/01/09 13:39:58;;;;;;;3.93;1.80;;;8.30;99.90;;;;;;5030601;28;20446;-79